createdAt,value
2023-01-23T00:00:04.775Z,56.29
2023-01-23T00:02:32.894Z,56.02
2023-01-23T00:05:00.757Z,56.98
2023-01-23T00:07:30.363Z,56.29
2023-01-23T00:09:58.268Z,56.59
2023-01-23T00:12:27.141Z,56.49
2023-01-23T00:14:54.927Z,56.80
2023-01-23T00:17:23.013Z,56.89
2023-01-23T00:19:50.942Z,56.71
2023-01-23T00:22:19.004Z,56.59
2023-01-23T00:24:48.382Z,56.53
2023-01-23T00:27:16.169Z,56.59
2023-01-23T00:29:44.033Z,56.67
2023-01-23T00:32:12.099Z,56.23
2023-01-23T00:34:39.929Z,57.20
2023-01-23T00:37:07.813Z,56.80
2023-01-23T00:39:35.617Z,56.48
2023-01-23T00:42:05.400Z,56.40
2023-01-23T00:44:37.299Z,56.54
2023-01-23T00:47:06.394Z,56.90
2023-01-23T00:49:35.240Z,56.31
2023-01-23T00:52:03.030Z,56.84
2023-01-23T00:54:31.984Z,56.62
2023-01-23T00:56:59.760Z,56.13
2023-01-23T00:59:29.002Z,56.43
2023-01-23T01:01:56.799Z,56.29
2023-01-23T01:04:24.665Z,56.95
2023-01-23T01:06:52.494Z,56.61
2023-01-23T01:09:20.381Z,56.48
2023-01-23T01:11:48.170Z,55.94
2023-01-23T01:14:17.027Z,56.50
2023-01-23T01:16:46.732Z,56.39
2023-01-23T01:19:14.715Z,56.09
2023-01-23T01:21:42.642Z,55.86
2023-01-23T01:24:11.512Z,56.17
2023-01-23T01:26:40.284Z,56.56
2023-01-23T01:29:09.700Z,56.42
2023-01-23T01:31:38.075Z,56.20
2023-01-23T01:34:07.431Z,56.43
2023-01-23T01:36:35.461Z,55.91
2023-01-23T01:39:03.274Z,55.52
2023-01-23T01:41:31.104Z,55.72
2023-01-23T01:44:00.341Z,55.92
2023-01-23T01:46:28.306Z,55.60
2023-01-23T01:49:08.270Z,55.83
2023-01-23T01:51:38.569Z,56.62
2023-01-23T01:54:11.672Z,56.64
2023-01-23T01:56:41.458Z,56.56
2023-01-23T01:59:10.710Z,56.60
2023-01-23T02:01:39.051Z,56.38
2023-01-23T02:04:08.291Z,56.47
2023-01-23T02:06:36.116Z,56.02
2023-01-23T02:09:05.889Z,55.62
2023-01-23T02:11:33.755Z,56.30
2023-01-23T02:14:01.647Z,56.48
2023-01-23T02:16:31.538Z,56.36
2023-01-23T02:19:01.807Z,56.65
2023-01-23T02:24:17.592Z,56.04
2023-01-23T02:26:46.840Z,55.97
2023-01-23T02:29:14.841Z,56.57
2023-01-23T02:31:44.459Z,55.81
2023-01-23T02:34:12.590Z,56.33
2023-01-23T02:36:40.361Z,55.79
2023-01-23T02:39:09.127Z,56.71
2023-01-23T02:41:37.640Z,56.01
2023-01-23T02:44:10.388Z,55.79
2023-01-23T02:46:38.029Z,55.86
2023-01-23T02:49:05.778Z,56.26
2023-01-23T02:51:33.477Z,55.94
2023-01-23T02:54:01.355Z,55.87
2023-01-23T02:56:29.228Z,55.06
2023-01-23T02:59:14.794Z,55.80
2023-01-23T03:01:43.940Z,55.54
2023-01-23T03:04:11.738Z,55.65
2023-01-23T03:06:39.394Z,55.63
2023-01-23T03:09:09.446Z,56.20
2023-01-23T03:11:38.034Z,55.85
2023-01-23T03:14:06.168Z,56.15
2023-01-23T03:16:36.042Z,55.67
2023-01-23T03:19:08.832Z,55.49
2023-01-23T03:21:37.397Z,55.63
2023-01-23T03:24:05.685Z,55.96
2023-01-23T03:26:33.398Z,55.83
2023-01-23T03:29:18.652Z,56.71
2023-01-23T03:31:46.365Z,56.64
2023-01-23T03:34:17.846Z,56.94
2023-01-23T03:36:45.537Z,55.88
2023-01-23T03:39:31.055Z,57.12
2023-01-23T03:41:58.682Z,56.54
2023-01-23T03:44:26.386Z,56.24
2023-01-23T03:46:54.017Z,56.99
2023-01-23T03:49:23.141Z,56.87
2023-01-23T03:51:50.797Z,57.42
2023-01-23T03:54:18.908Z,57.40
2023-01-23T03:56:46.722Z,57.16
2023-01-23T03:59:14.499Z,57.17
2023-01-23T04:01:42.484Z,57.60
2023-01-23T04:04:10.205Z,56.53
2023-01-23T04:06:39.227Z,57.53
2023-01-23T04:09:07.090Z,56.98
2023-01-23T04:11:34.757Z,56.96
2023-01-23T04:14:02.510Z,56.42
2023-01-23T04:16:30.219Z,57.41
2023-01-23T04:18:57.946Z,56.50
2023-01-23T04:21:25.596Z,56.53
2023-01-23T04:23:54.586Z,57.00
2023-01-23T04:26:22.377Z,56.17
2023-01-23T04:28:50.341Z,57.05
2023-01-23T04:31:18.159Z,56.86
2023-01-23T04:33:45.902Z,56.79
2023-01-23T04:36:13.719Z,57.07
2023-01-23T04:38:41.369Z,56.85
2023-01-23T04:41:10.862Z,56.35
2023-01-23T04:43:38.512Z,56.75
2023-01-23T04:46:06.371Z,56.29
2023-01-23T04:48:34.211Z,56.13
2023-01-23T04:51:02.144Z,56.97
2023-01-23T04:53:29.968Z,56.11
2023-01-23T04:55:57.618Z,56.32
2023-01-23T04:58:26.738Z,56.10
2023-01-23T05:00:54.421Z,56.17
2023-01-23T05:03:22.207Z,56.24
2023-01-23T05:05:49.895Z,56.14
2023-01-23T05:08:17.670Z,56.14
2023-01-23T05:10:45.720Z,56.19
2023-01-23T05:13:13.349Z,55.98
2023-01-23T05:15:42.543Z,56.08
2023-01-23T05:18:10.371Z,56.91
2023-01-23T05:20:38.086Z,57.12
2023-01-23T05:23:05.875Z,56.86
2023-01-23T05:25:33.525Z,57.29
2023-01-23T05:28:01.286Z,56.43
2023-01-23T05:30:28.951Z,57.19
2023-01-23T05:32:58.086Z,57.25
2023-01-23T05:35:25.699Z,56.62
2023-01-23T05:37:53.538Z,56.85
2023-01-23T05:40:21.777Z,57.22
2023-01-23T05:42:49.855Z,56.94
2023-01-23T05:45:17.753Z,57.00
2023-01-23T05:47:45.625Z,57.86
2023-01-23T05:50:17.030Z,57.76
2023-01-23T05:52:44.751Z,57.53
2023-01-23T05:55:12.530Z,57.07
2023-01-23T05:57:40.280Z,57.93
2023-01-23T06:00:10.234Z,56.89
2023-01-23T06:02:38.092Z,56.55
2023-01-23T06:05:06.695Z,57.44
2023-01-23T06:07:35.854Z,57.17
2023-01-23T06:10:03.510Z,56.70
2023-01-23T06:12:31.291Z,57.35
2023-01-23T06:14:59.042Z,56.48
2023-01-23T06:17:26.808Z,57.23
2023-01-23T06:19:54.452Z,56.54
2023-01-23T06:22:22.136Z,56.82
2023-01-23T06:24:52.577Z,57.56
2023-01-23T06:27:20.313Z,57.32
2023-01-23T06:29:48.333Z,57.64
2023-01-23T06:32:16.004Z,57.37
2023-01-23T06:34:43.994Z,56.90
2023-01-23T06:37:11.685Z,57.66
2023-01-23T06:39:39.572Z,57.40
2023-01-23T06:42:10.240Z,57.60
2023-01-23T06:44:38.127Z,56.62
2023-01-23T06:47:06.099Z,57.63
2023-01-23T06:49:33.915Z,56.96
2023-01-23T06:52:01.579Z,56.72
2023-01-23T06:54:29.917Z,56.81
2023-01-23T06:56:57.604Z,57.46
2023-01-23T06:59:26.816Z,57.00
2023-01-23T07:01:54.548Z,57.15
2023-01-23T07:04:24.633Z,57.17
2023-01-23T07:06:52.310Z,56.35
2023-01-23T07:09:20.065Z,56.65
2023-01-23T07:11:47.913Z,57.23
2023-01-23T07:14:15.929Z,56.55
2023-01-23T07:16:45.302Z,56.98
2023-01-23T07:19:13.423Z,56.83
2023-01-23T07:21:41.328Z,57.10
2023-01-23T07:24:09.438Z,57.00
2023-01-23T07:26:37.290Z,57.04
2023-01-23T07:29:05.203Z,56.89
2023-01-23T07:31:33.201Z,57.29
2023-01-23T07:34:02.786Z,56.47
2023-01-23T07:36:31.031Z,56.57
2023-01-23T07:38:59.371Z,56.75
2023-01-23T07:41:27.276Z,57.19
2023-01-23T07:43:55.240Z,56.87
2023-01-23T07:46:23.906Z,56.99
2023-01-23T07:48:51.785Z,56.74
2023-01-23T07:51:20.937Z,57.28
2023-01-23T07:53:50.069Z,56.79
2023-01-23T07:56:18.131Z,56.97
2023-01-23T07:58:46.267Z,57.30
2023-01-23T08:01:14.256Z,56.98
2023-01-23T08:03:42.111Z,57.23
2023-01-23T08:06:10.068Z,56.94
2023-01-23T08:08:39.345Z,57.48
2023-01-23T08:11:07.445Z,56.80
2023-01-23T08:13:35.368Z,57.50
2023-01-23T08:16:03.324Z,56.95
2023-01-23T08:18:31.436Z,57.35
2023-01-23T08:21:00.568Z,56.89
2023-01-23T08:26:05.176Z,56.74
2023-01-23T08:28:33.061Z,56.81
2023-01-23T08:31:01.994Z,56.70
2023-01-23T08:33:29.942Z,57.46
2023-01-23T08:35:58.699Z,57.19
2023-01-23T08:38:26.626Z,57.50
2023-01-23T08:40:55.279Z,57.47
2023-01-23T08:43:30.891Z,56.74
2023-01-23T08:45:59.129Z,57.04
2023-01-23T08:48:27.144Z,57.59
2023-01-23T08:51:00.026Z,57.50
2023-01-23T08:53:27.911Z,57.05
2023-01-23T08:55:59.173Z,57.10
2023-01-23T08:58:28.451Z,57.49
2023-01-23T09:00:56.150Z,57.98
2023-01-23T09:03:24.022Z,57.43
2023-01-23T09:05:51.716Z,57.40
2023-01-23T09:08:19.523Z,57.56
2023-01-23T09:10:47.211Z,57.19
2023-01-23T09:13:14.889Z,57.60
2023-01-23T09:15:44.084Z,57.34
2023-01-23T09:18:11.806Z,56.71
2023-01-23T09:20:39.763Z,57.33
2023-01-23T09:23:07.686Z,56.45
2023-01-23T09:25:35.619Z,56.82
2023-01-23T09:28:03.517Z,56.33
2023-01-23T09:30:31.215Z,56.49
2023-01-23T09:33:00.355Z,56.07
2023-01-23T09:35:28.175Z,56.03
2023-01-23T09:38:01.985Z,56.22
2023-01-23T09:40:31.684Z,56.33
2023-01-23T09:43:01.921Z,56.16
2023-01-23T09:45:30.811Z,55.56
2023-01-23T09:48:15.784Z,55.68
2023-01-23T09:50:49.043Z,55.61
2023-01-23T09:53:18.401Z,55.79
2023-01-23T09:55:49.027Z,56.15
2023-01-23T09:58:18.997Z,55.76
2023-01-23T10:00:47.578Z,55.37
2023-01-23T10:03:16.827Z,55.61
2023-01-23T10:06:02.180Z,55.71
2023-01-23T10:08:32.895Z,55.36
2023-01-23T10:11:01.146Z,55.28
2023-01-23T10:13:41.514Z,55.40
2023-01-23T10:16:20.094Z,55.18
2023-01-23T10:18:54.490Z,54.71
2023-01-23T10:21:26.333Z,54.94
2023-01-23T10:24:02.274Z,55.34
2023-01-23T10:26:31.903Z,54.46
2023-01-23T10:29:02.726Z,54.59
2023-01-23T10:31:34.831Z,54.74
2023-01-23T10:34:07.841Z,54.41
2023-01-23T10:36:48.012Z,54.73
2023-01-23T10:39:23.928Z,54.75
2023-01-23T10:42:01.461Z,54.44
2023-01-23T10:44:29.976Z,54.36
2023-01-23T10:46:59.298Z,54.24
2023-01-23T10:49:32.597Z,53.89
2023-01-23T10:52:00.541Z,53.95
2023-01-23T10:54:33.240Z,54.38
2023-01-23T10:57:02.035Z,54.05
2023-01-23T10:59:32.548Z,53.93
2023-01-23T11:02:18.326Z,53.92
2023-01-23T11:04:48.297Z,53.83
2023-01-23T11:07:18.047Z,53.77
2023-01-23T11:09:51.430Z,53.63
2023-01-23T11:12:21.266Z,53.52
2023-01-23T11:14:49.237Z,53.58
2023-01-23T11:17:22.206Z,53.63
2023-01-23T11:19:53.248Z,53.43
2023-01-23T11:22:34.270Z,53.07
2023-01-23T11:25:02.094Z,53.63
2023-01-23T11:27:31.114Z,52.88
2023-01-23T11:30:28.592Z,53.00
2023-01-23T11:32:58.954Z,53.15
2023-01-23T11:35:32.280Z,52.94
2023-01-23T11:38:00.245Z,52.32
2023-01-23T11:40:28.183Z,51.93
2023-01-23T11:42:55.972Z,52.32
2023-01-23T11:45:34.070Z,52.24
2023-01-23T11:48:19.616Z,51.89
2023-01-23T11:50:55.245Z,52.08
2023-01-23T11:53:41.446Z,51.33
2023-01-23T11:56:29.388Z,51.43
2023-01-23T11:59:33.288Z,50.53
2023-01-23T12:02:16.165Z,51.07
2023-01-23T12:04:55.341Z,51.54
2023-01-23T12:07:24.836Z,51.07
2023-01-23T12:09:57.760Z,50.61
2023-01-23T12:12:32.734Z,51.56
2023-01-23T12:15:04.309Z,51.00
2023-01-23T12:17:37.358Z,50.66
2023-01-23T12:20:26.459Z,49.59
2023-01-23T12:23:16.668Z,49.66
2023-01-23T12:25:46.696Z,50.38
2023-01-23T12:28:22.699Z,49.68
2023-01-23T12:31:06.670Z,49.52
2023-01-23T12:33:44.546Z,49.73
2023-01-23T12:36:24.792Z,50.14
2023-01-23T12:38:57.449Z,50.17
2023-01-23T12:41:29.766Z,50.25
2023-01-23T12:44:00.606Z,49.94
2023-01-23T12:46:33.978Z,50.28
2023-01-23T12:49:04.213Z,49.66
2023-01-23T12:51:34.484Z,49.71
2023-01-23T12:54:03.837Z,50.72
2023-01-23T12:56:32.449Z,50.03
2023-01-23T12:59:05.598Z,50.30
2023-01-23T13:01:44.015Z,51.17
2023-01-23T13:04:19.699Z,50.90
2023-01-23T13:07:22.517Z,50.50
2023-01-23T13:10:06.810Z,51.30
2023-01-23T13:12:34.975Z,51.40
2023-01-23T13:15:39.194Z,51.03
2023-01-23T13:18:22.447Z,50.85
2023-01-23T13:21:14.052Z,50.82
2023-01-23T13:23:41.942Z,50.64
2023-01-23T13:26:28.927Z,50.87
2023-01-23T13:28:58.600Z,51.08
2023-01-23T13:31:28.800Z,51.36
2023-01-23T13:34:06.712Z,50.98
2023-01-23T13:36:38.603Z,51.02
2023-01-23T13:39:25.027Z,51.00
2023-01-23T13:42:44.951Z,51.00
2023-01-23T13:45:21.168Z,50.94
2023-01-23T14:22:54.791Z,51.64
2023-01-23T14:25:27.420Z,51.83
2023-01-23T14:28:03.417Z,51.82
2023-01-23T14:30:31.651Z,51.64
2023-01-23T14:33:00.759Z,51.96
2023-01-23T14:35:29.755Z,51.79
2023-01-23T14:37:58.712Z,51.71
2023-01-23T14:40:28.473Z,51.24
2023-01-23T14:42:59.940Z,52.23
2023-01-23T14:45:36.934Z,51.89
2023-01-23T14:48:07.417Z,52.03
2023-01-23T14:50:35.714Z,52.08
2023-01-23T14:53:04.186Z,52.29
2023-01-23T14:55:32.232Z,52.25
2023-01-23T14:58:00.658Z,51.44
2023-01-23T15:00:28.686Z,52.41
2023-01-23T15:02:56.577Z,52.53
2023-01-23T15:05:26.917Z,52.41
2023-01-23T15:07:56.065Z,52.13
2023-01-23T15:10:25.358Z,52.34
2023-01-23T15:12:55.079Z,52.36
2023-01-23T15:15:25.028Z,52.43
2023-01-23T15:17:53.036Z,52.24
2023-01-23T15:20:40.577Z,52.43
2023-01-23T15:23:32.781Z,51.64
2023-01-23T15:26:11.656Z,52.33
2023-01-23T15:28:40.660Z,52.09
2023-01-23T15:31:26.943Z,52.30
2023-01-23T15:33:54.750Z,51.90
2023-01-23T15:36:28.241Z,51.97
2023-01-23T15:38:56.071Z,52.32
2023-01-23T15:41:39.075Z,51.86
2023-01-23T15:44:15.263Z,51.84
2023-01-23T15:46:43.015Z,52.26
2023-01-23T15:49:23.588Z,52.04
2023-01-23T15:51:55.623Z,52.44
2023-01-23T15:54:25.994Z,52.69
2023-01-23T15:57:05.399Z,52.40
2023-01-23T15:59:34.239Z,52.28
2023-01-23T16:02:02.043Z,52.31
2023-01-23T16:04:29.703Z,52.22
2023-01-23T16:06:59.189Z,52.83
2023-01-23T16:12:12.521Z,52.58
2023-01-23T16:14:40.184Z,52.54
2023-01-23T16:17:16.336Z,52.43
2023-01-23T16:19:45.236Z,52.19
2023-01-23T16:22:15.934Z,52.33
2023-01-23T16:24:43.659Z,52.66
2023-01-23T16:27:15.801Z,52.53
2023-01-23T16:29:44.180Z,52.15
2023-01-23T16:32:12.209Z,52.15
2023-01-23T16:34:39.911Z,52.63
2023-01-23T16:37:07.579Z,52.44
2023-01-23T16:39:41.570Z,52.28
2023-01-23T16:42:13.771Z,52.62
2023-01-23T16:44:41.509Z,52.88
2023-01-23T16:47:09.176Z,52.70
2023-01-23T16:49:51.032Z,52.39
2023-01-23T16:52:20.170Z,52.33
2023-01-23T16:54:49.258Z,52.21
2023-01-23T16:57:19.375Z,52.58
2023-01-23T16:59:48.100Z,52.74
2023-01-23T17:02:19.658Z,52.71
2023-01-23T17:04:47.394Z,52.41
2023-01-23T17:07:15.561Z,52.66
2023-01-23T17:09:43.252Z,52.51
2023-01-23T17:12:13.611Z,52.42
2023-01-23T17:14:41.373Z,52.29
2023-01-23T17:17:11.948Z,52.07
2023-01-23T17:19:41.549Z,52.67
2023-01-23T17:22:11.792Z,52.56
2023-01-23T17:24:39.515Z,52.70
2023-01-23T17:27:07.732Z,52.49
2023-01-23T17:29:36.748Z,52.73
2023-01-23T17:32:04.800Z,52.97
2023-01-23T17:34:45.151Z,52.63
2023-01-23T17:37:20.175Z,52.44
2023-01-23T17:39:47.926Z,52.34
2023-01-23T17:42:15.739Z,52.81
2023-01-23T17:44:45.007Z,52.43
2023-01-23T17:47:13.055Z,53.07
2023-01-23T17:49:41.833Z,52.88
2023-01-23T17:52:11.266Z,53.03
2023-01-23T17:54:39.394Z,52.51
2023-01-23T17:57:07.229Z,52.46
2023-01-23T17:59:35.068Z,52.42
2023-01-23T18:02:04.148Z,52.43
2023-01-23T18:04:31.875Z,52.67
2023-01-23T18:06:59.544Z,52.50
2023-01-23T18:09:27.761Z,52.67
2023-01-23T18:11:55.780Z,52.97
2023-01-23T18:14:35.079Z,52.28
2023-01-23T18:17:18.074Z,52.49
2023-01-23T18:19:46.389Z,52.70
2023-01-23T18:22:14.551Z,52.62
2023-01-23T18:24:42.942Z,52.89
2023-01-23T18:27:18.081Z,52.19
2023-01-23T18:29:51.946Z,52.42
2023-01-23T18:32:38.583Z,52.57
2023-01-23T18:35:10.629Z,52.59
2023-01-23T18:37:41.300Z,52.57
2023-01-23T18:40:13.387Z,52.87
2023-01-23T18:42:45.256Z,52.58
2023-01-23T18:45:18.660Z,53.04
2023-01-23T18:47:57.223Z,52.33
2023-01-23T18:50:27.051Z,52.14
2023-01-23T18:53:08.771Z,52.65
2023-01-23T18:55:39.400Z,52.25
2023-01-23T19:00:43.931Z,52.46
2023-01-23T19:03:14.496Z,52.88
2023-01-23T19:05:42.724Z,52.44
2023-01-23T19:08:27.993Z,52.35
2023-01-23T19:10:56.987Z,52.80
2023-01-23T19:13:26.321Z,52.04
2023-01-23T19:15:58.009Z,52.27
2023-01-23T19:18:40.791Z,52.80
2023-01-23T19:21:14.342Z,52.25
2023-01-23T19:23:45.400Z,52.41
2023-01-23T19:26:13.295Z,52.67
2023-01-23T19:28:41.438Z,53.08
2023-01-23T19:31:14.168Z,52.90
2023-01-23T19:33:43.440Z,52.82
2023-01-23T19:36:12.917Z,52.78
2023-01-23T19:38:40.677Z,53.10
2023-01-23T19:41:19.409Z,52.66
2023-01-23T19:43:51.184Z,52.35
2023-01-23T19:46:19.365Z,52.52
2023-01-23T19:48:48.478Z,52.18
2023-01-23T19:51:17.338Z,53.26
2023-01-23T19:53:45.592Z,52.82
2023-01-23T19:56:14.005Z,52.70
2023-01-23T19:58:42.490Z,52.82
2023-01-23T20:01:19.524Z,52.48
2023-01-23T20:03:48.833Z,52.27
2023-01-23T20:06:16.595Z,52.40
2023-01-23T20:08:44.472Z,52.83
2023-01-23T20:11:12.461Z,52.52
2023-01-23T20:13:40.914Z,52.52
2023-01-23T20:16:15.211Z,52.29
2023-01-23T20:18:43.227Z,52.36
2023-01-23T20:21:12.487Z,52.35
2023-01-23T20:23:41.324Z,52.76
2023-01-23T20:26:09.200Z,52.23
2023-01-23T20:28:37.141Z,52.38
2023-01-23T20:31:08.733Z,52.31
2023-01-23T20:33:36.560Z,52.58
2023-01-23T20:36:04.785Z,52.91
2023-01-23T20:38:33.977Z,52.32
2023-01-23T20:41:04.645Z,52.89
2023-01-23T20:43:32.459Z,52.72
2023-01-23T20:46:00.276Z,52.73
2023-01-23T20:48:28.047Z,52.88
2023-01-23T20:50:56.217Z,52.51
2023-01-23T20:53:34.116Z,52.89
2023-01-23T20:56:07.943Z,52.61
2023-01-23T20:58:54.270Z,52.82
2023-01-23T21:01:22.671Z,53.02
2023-01-23T21:03:50.776Z,52.69
2023-01-23T21:06:18.925Z,52.67
2023-01-23T21:08:46.957Z,52.74
2023-01-23T21:11:16.868Z,52.99
2023-01-23T21:13:44.627Z,52.98
2023-01-23T21:16:14.425Z,53.03
2023-01-23T21:18:44.725Z,52.83
2023-01-23T21:21:13.279Z,53.09
2023-01-23T21:23:41.123Z,53.00
2023-01-23T21:26:08.981Z,53.45
2023-01-23T21:28:38.970Z,53.30
2023-01-23T21:31:10.878Z,53.20
2023-01-23T21:33:40.463Z,53.10
2023-01-23T21:36:09.273Z,53.22
2023-01-23T21:38:37.123Z,53.11
2023-01-23T21:41:05.131Z,53.38
2023-01-23T21:43:35.552Z,53.24
2023-01-23T21:46:05.079Z,53.66
2023-01-23T21:48:33.596Z,53.58
2023-01-23T21:51:05.953Z,53.31
2023-01-23T21:53:33.738Z,53.18
2023-01-23T21:56:01.607Z,53.25
2023-01-23T21:58:29.547Z,53.44
2023-01-23T22:01:15.553Z,53.38
2023-01-23T22:03:44.950Z,53.05
2023-01-23T22:06:12.938Z,53.28
2023-01-23T22:08:40.771Z,53.38
2023-01-23T22:11:09.015Z,53.19
2023-01-23T22:13:36.916Z,53.70
2023-01-23T22:16:04.894Z,53.88
2023-01-23T22:18:32.646Z,54.08
2023-01-23T22:21:02.818Z,53.62
2023-01-23T22:23:30.909Z,53.60
2023-01-23T22:26:00.741Z,53.58
2023-01-23T22:28:28.789Z,54.03
2023-01-23T22:30:56.912Z,53.31
2023-01-23T22:33:30.038Z,53.90
2023-01-23T22:36:06.187Z,54.10
2023-01-23T22:38:34.354Z,53.84
2023-01-23T22:41:03.034Z,53.72
2023-01-23T22:43:31.045Z,53.71
2023-01-23T22:46:06.200Z,54.13
2023-01-23T22:48:35.221Z,53.94
2023-01-23T22:51:05.008Z,53.79
2023-01-23T22:53:32.918Z,54.05
2023-01-23T22:56:00.593Z,54.23
2023-01-23T22:58:28.412Z,53.73
2023-01-23T23:00:56.268Z,53.86
2023-01-23T23:03:23.970Z,54.06
2023-01-23T23:05:57.746Z,53.99
2023-01-23T23:08:26.876Z,53.59
2023-01-23T23:11:01.881Z,53.51
2023-01-23T23:13:30.161Z,54.38
2023-01-23T23:15:58.128Z,53.67
2023-01-23T23:21:01.157Z,54.66
2023-01-23T23:23:30.251Z,54.73
2023-01-23T23:25:58.049Z,53.77
2023-01-23T23:28:26.753Z,54.06
2023-01-23T23:30:54.502Z,54.49
2023-01-23T23:33:22.411Z,54.07
2023-01-23T23:35:50.101Z,54.59
2023-01-23T23:38:18.066Z,54.57
2023-01-23T23:40:56.711Z,54.02
2023-01-23T23:43:24.385Z,54.53
2023-01-23T23:45:53.058Z,53.60
2023-01-23T23:48:20.847Z,54.17
2023-01-23T23:50:48.669Z,53.81
2023-01-23T23:53:16.371Z,53.75
2023-01-23T23:55:44.243Z,54.21
2023-01-23T23:58:13.498Z,53.75
